Naval Hospital, North Carolina
Current Conditions -  °F | °C
As of 4:56 PM on Friday 24 Oct 2014 (Local Time) from KNCA Reporting Station
Clear Clear  
Wind Chill: 69°   Ceiling: Unl
Heat Index: 69°   Visibility: 10mi
Dew Point: 47°   Wind: 7mph
Humidity: 45%   Direction: 280°W
Pressure: 29.95"   Gusts: NA
Location:  34.7003°N, 77.3614°W
Report Text: KNCA 242056Z AUTO 28006KT 10SM CLR 21/08 A2995 RMK AO2 SLP143 T02060083 56012
Loading
Personal Weather Stations






























Interactive Weather Map
Tropical Storm Tracking
New forecast layout! Learn more

10-Day Weather Forecast

Advertisements
Track Severe Weather on mobile